W04 weather

Ocean Shores Municipal Airport
Ocean Shores, Washington, United States

Public forecast

Using degrees Fahrenheit for public forecast. Weather courtesy of forecast.io.

Closest aviation weather report (METAR) to Ocean Shores Municipal Airport

Closest report is Bowerman Airport, 8.7 nm (16.1 km) ESE. Retrieved 2019/10/14 01:17 UTC (37 minutes ago):

KHQM 140117Z AUTO 28009KT 10SM BKN025 12/08 A3000 RMK AO2 T01220083

Closest aviation forecast (TAF) to Ocean Shores Municipal Airport

Closest forecast is Bowerman Airport, 8.7 nm (16.1 km) ESE. Retrieved 2019-10-14 00:22 UTC (2 hours ago):

TAF KHQM 132320Z 1400/1424 27010KT P6SM SCT040 FM140600 VRB03KT P6SM SKC FM141000 09004KT P6SM BKN003 FM141200 09004KT 3SM BR OVC003 TEMPO 1412/1416 1/2SM FG VV002 FM141700 VRB03KT P6SM SCT010 SCT150 FM141900 VRB03KT P6SM BKN150